Time;durP1;ratioP1;P1;durP2;ratioP2;P2;SDS_P1;SDS_P2;PMS_P1;PMS_P2;Temp;Humidity;BMP_temperature;BMP_pressure;BME280_temperature;BME280_humidity;BME280_pressure;Samples;Min_cycle;Max_cycle;Signal;HPM_P1;HPM_P2
2023/07/14 00:00:37;;;;;;;1.93;1.70;;;;;;;;;;4896780;29;20249;-73
2023/07/14 00:03:03;;;;;;;3.93;1.73;;;;;;;;;;4887384;29;20229;-74
2023/07/14 00:05:31;;;;;;;2.87;2.07;;;;;;;;;;4894925;29;20194;-73
2023/07/14 00:07:56;;;;;;;4.03;1.60;;;;;;;;;;4914191;29;20200;-73
2023/07/14 00:10:23;;;;;;;6.13;1.87;;;;;;;;;;4912415;29;20190;-74
2023/07/14 00:12:49;;;;;;;2.63;1.87;;;;;;;;;;4890693;29;20185;-74
2023/07/14 00:15:15;;;;;;;2.63;1.80;;;;;;;;;;4902274;29;20312;-73
2023/07/14 00:17:40;;;;;;;2.60;1.60;;;;;;;;;;4896672;29;20227;-74
2023/07/14 00:20:16;;;;;;;3.40;1.77;;;;;;;;;;4887236;29;20249;-74
2023/07/14 00:22:41;;;;;;;2.27;1.70;;;;;;;;;;4892803;29;20186;-73
2023/07/14 00:25:07;;;;;;;2.67;1.60;;;;;;;;;;4895735;29;20189;-74
2023/07/14 00:27:33;;;;;;;3.33;1.90;;;;;;;;;;4896077;29;20358;-73
2023/07/14 00:29:58;;;;;;;2.40;1.83;;;;;;;;;;4895034;29;20255;-73
2023/07/14 00:32:23;;;;;;;3.40;1.70;;;;;;;;;;4894745;29;20259;-73
2023/07/14 00:34:49;;;;;;;1.93;1.53;;;;;;;;;;4896359;29;20176;-73
2023/07/14 00:37:14;;;;;;;3.43;2.60;;;;;;;;;;4909718;29;20180;-74
2023/07/14 00:39:40;;;;;;;4.33;1.70;;;;;;;;;;4891846;29;20194;-73
2023/07/14 00:42:10;;;;;;;4.07;1.77;;;;;;;;;;4898568;29;20194;-74
2023/07/14 00:44:35;;;;;;;4.73;1.80;;;;;;;;;;4894391;29;20191;-73
2023/07/14 00:47:01;;;;;;;2.63;1.97;;;;;;;;;;4889847;29;20216;-73
2023/07/14 00:49:32;;;;;;;2.43;1.80;;;;;;;;;;4910305;29;20250;-73
2023/07/14 00:52:03;;;;;;;4.70;1.80;;;;;;;;;;4888153;29;20257;-74
2023/07/14 00:54:28;;;;;;;2.67;1.70;;;;;;;;;;4906069;29;20271;-73
2023/07/14 00:56:55;;;;;;;3.57;1.63;;;;;;;;;;4900280;29;20228;-73
2023/07/14 00:59:20;;;;;;;2.10;1.83;;;;;;;;;;4905029;29;20263;-74
2023/07/14 01:02:04;;;;;;;4.10;1.97;;;;;;;;;;4909178;29;20273;-73
2023/07/14 01:04:29;;;;;;;2.47;1.80;;;;;;;;;;4903217;29;20184;-74
2023/07/14 01:06:54;;;;;;;3.70;1.93;;;;;;;;;;4909708;29;20210;-73
2023/07/14 01:09:20;;;;;;;3.03;1.63;;;;;;;;;;4904387;29;20189;-73
2023/07/14 01:11:48;;;;;;;4.67;1.80;;;;;;;;;;4886889;29;20183;-73
2023/07/14 01:14:17;;;;;;;2.63;1.80;;;;;;;;;;4886591;29;20189;-73
2023/07/14 01:16:42;;;;;;;2.73;1.73;;;;;;;;;;4890487;29;20193;-73
2023/07/14 01:19:14;;;;;;;3.13;2.10;;;;;;;;;;4908239;29;20217;-73
2023/07/14 01:21:39;;;;;;;3.00;2.00;;;;;;;;;;4899220;29;20184;-73
2023/07/14 01:24:07;;;;;;;4.40;2.00;;;;;;;;;;4892125;29;20187;-73
2023/07/14 01:26:51;;;;;;;2.47;1.90;;;;;;;;;;4893983;29;20213;-73
2023/07/14 01:29:17;;;;;;;2.13;1.90;;;;;;;;;;4897465;29;20246;-73
2023/07/14 01:31:42;;;;;;;4.40;2.30;;;;;;;;;;4910163;29;20213;-73
2023/07/14 01:34:08;;;;;;;2.90;2.03;;;;;;;;;;4889940;29;20233;-73
2023/07/14 01:36:33;;;;;;;2.43;1.77;;;;;;;;;;4890452;29;20186;-73
2023/07/14 01:38:59;;;;;;;3.03;1.70;;;;;;;;;;4888603;29;20213;-73
2023/07/14 01:41:24;;;;;;;2.27;1.80;;;;;;;;;;4894443;29;20184;-73
2023/07/14 01:43:50;;;;;;;2.70;1.70;;;;;;;;;;4892649;29;20277;-73
2023/07/14 01:46:16;;;;;;;3.03;2.20;;;;;;;;;;4888088;29;20240;-73
2023/07/14 01:48:59;;;;;;;2.57;1.60;;;;;;;;;;4906221;29;20248;-74
2023/07/14 01:51:30;;;;;;;3.10;2.00;;;;;;;;;;4889894;29;20181;-73
2023/07/14 01:53:56;;;;;;;2.37;1.80;;;;;;;;;;4897320;29;20238;-73
2023/07/14 01:56:23;;;;;;;2.63;1.60;;;;;;;;;;4897831;29;20187;-74
2023/07/14 01:58:56;;;;;;;3.87;1.90;;;;;;;;;;4907245;29;20308;-73
2023/07/14 02:01:23;;;;;;;2.33;1.60;;;;;;;;;;4907758;29;20196;-73
2023/07/14 02:03:50;;;;;;;2.13;1.77;;;;;;;;;;4910379;29;20279;-73
2023/07/14 02:06:15;;;;;;;2.47;1.80;;;;;;;;;;4910788;29;20270;-73
2023/07/14 02:08:40;;;;;;;2.40;1.80;;;;;;;;;;4913261;29;20297;-73
2023/07/14 02:11:05;;;;;;;1.93;1.70;;;;;;;;;;4898758;29;20175;-74
2023/07/14 02:13:32;;;;;;;3.07;2.00;;;;;;;;;;4898949;29;20187;-73
2023/07/14 02:15:57;;;;;;;1.90;1.77;;;;;;;;;;4910462;29;20201;-73
2023/07/14 02:18:26;;;;;;;3.73;2.03;;;;;;;;;;4907410;29;20189;-73
2023/07/14 02:20:53;;;;;;;3.07;2.10;;;;;;;;;;4894646;29;20235;-73
2023/07/14 02:23:20;;;;;;;2.53;1.70;;;;;;;;;;4911855;29;20194;-74
2023/07/14 02:25:46;;;;;;;2.70;2.10;;;;;;;;;;4909481;29;20235;-73
2023/07/14 02:28:12;;;;;;;3.73;1.60;;;;;;;;;;4894699;29;20220;-74
2023/07/14 02:30:37;;;;;;;3.33;1.90;;;;;;;;;;4905992;29;20193;-73
2023/07/14 02:33:11;;;;;;;3.07;2.00;;;;;;;;;;4911557;29;20185;-73
2023/07/14 02:35:45;;;;;;;2.20;1.70;;;;;;;;;;4894155;29;20194;-73
2023/07/14 02:38:12;;;;;;;3.80;1.90;;;;;;;;;;4895339;29;20184;-73
2023/07/14 02:40:38;;;;;;;4.80;1.80;;;;;;;;;;4914324;29;20186;-73
2023/07/14 02:43:07;;;;;;;2.00;1.80;;;;;;;;;;4909386;29;20179;-73
2023/07/14 02:45:34;;;;;;;3.53;1.93;;;;;;;;;;4915859;29;20193;-73
2023/07/14 02:48:00;;;;;;;3.53;1.90;;;;;;;;;;4909064;29;20204;-73
2023/07/14 02:50:25;;;;;;;4.03;2.03;;;;;;;;;;4910351;29;20276;-73
2023/07/14 02:52:50;;;;;;;2.77;1.87;;;;;;;;;;4909455;29;20267;-74
2023/07/14 02:55:15;;;;;;;2.60;2.03;;;;;;;;;;4912261;29;20230;-74
2023/07/14 02:57:40;;;;;;;4.37;2.00;;;;;;;;;;4913261;29;20203;-73
2023/07/14 03:00:07;;;;;;;2.27;1.80;;;;;;;;;;4909548;29;20246;-74
2023/07/14 03:02:33;;;;;;;6.00;2.23;;;;;;;;;;4911554;29;20336;-73
2023/07/14 03:04:58;;;;;;;2.17;1.97;;;;;;;;;;4912958;29;20281;-73
2023/07/14 03:07:23;;;;;;;3.37;1.80;;;;;;;;;;4912149;29;20206;-74
2023/07/14 03:09:48;;;;;;;2.60;2.07;;;;;;;;;;4924277;29;20179;-73
2023/07/14 03:12:13;;;;;;;5.03;1.73;;;;;;;;;;4913466;29;20181;-73
2023/07/14 03:14:40;;;;;;;2.27;1.60;;;;;;;;;;4905730;29;20178;-73
2023/07/14 03:17:05;;;;;;;4.03;1.73;;;;;;;;;;4910992;29;20207;-74
2023/07/14 03:19:30;;;;;;;2.20;2.00;;;;;;;;;;4907039;29;20273;-74
2023/07/14 03:21:55;;;;;;;2.63;1.67;;;;;;;;;;4911107;29;20210;-73
2023/07/14 03:24:21;;;;;;;5.20;2.07;;;;;;;;;;4908018;29;20189;-74
2023/07/14 03:26:46;;;;;;;2.17;1.70;;;;;;;;;;4915510;29;20198;-73
2023/07/14 03:29:11;;;;;;;3.80;2.00;;;;;;;;;;4922084;29;20179;-73
2023/07/14 03:31:36;;;;;;;2.97;1.80;;;;;;;;;;4908519;29;20180;-74
2023/07/14 03:34:02;;;;;;;3.57;1.90;;;;;;;;;;4913174;29;20182;-73
2023/07/14 03:36:27;;;;;;;2.57;1.80;;;;;;;;;;4914860;29;20196;-73
2023/07/14 03:39:27;;;;;;;4.53;1.83;;;;;;;;;;4901098;29;20227;-73
2023/07/14 03:41:54;;;;;;;4.47;1.90;;;;;;;;;;4837811;29;20197;-73
2023/07/14 03:44:19;;;;;;;3.30;1.77;;;;;;;;;;4838274;29;20265;-73
2023/07/14 03:46:44;;;;;;;3.27;1.90;;;;;;;;;;4841161;29;20202;-73
2023/07/14 03:49:09;;;;;;;2.77;2.00;;;;;;;;;;4828140;29;20234;-74
2023/07/14 03:51:35;;;;;;;5.17;2.17;;;;;;;;;;4842828;29;20210;-73
2023/07/14 03:54:00;;;;;;;2.53;1.97;;;;;;;;;;4821011;29;20238;-73
2023/07/14 03:56:25;;;;;;;2.40;1.87;;;;;;;;;;4824913;29;20205;-73
2023/07/14 03:58:53;;;;;;;5.20;2.23;;;;;;;;;;4819668;29;20284;-73
2023/07/14 04:01:18;;;;;;;2.83;1.73;;;;;;;;;;4838794;29;20253;-73
2023/07/14 04:03:45;;;;;;;3.40;2.10;;;;;;;;;;4834640;29;20286;-73
2023/07/14 04:06:10;;;;;;;2.07;1.83;;;;;;;;;;4837915;29;20186;-73
2023/07/14 04:08:36;;;;;;;2.47;2.23;;;;;;;;;;4839512;29;20222;-74
2023/07/14 04:11:02;;;;;;;2.43;2.03;;;;;;;;;;4824086;29;20188;-74
2023/07/14 04:13:27;;;;;;;1.77;1.67;;;;;;;;;;4839138;29;20317;-73
2023/07/14 04:15:52;;;;;;;2.43;1.90;;;;;;;;;;4878062;29;20196;-73
2023/07/14 04:18:17;;;;;;;2.63;1.80;;;;;;;;;;4904897;29;20180;-73
2023/07/14 04:20:43;;;;;;;2.67;1.90;;;;;;;;;;4910226;29;20288;-73
2023/07/14 04:23:08;;;;;;;3.17;2.30;;;;;;;;;;4911236;29;20180;-74
2023/07/14 04:25:34;;;;;;;2.50;1.60;;;;;;;;;;4907224;29;20211;-73
2023/07/14 04:27:59;;;;;;;3.17;2.00;;;;;;;;;;4912534;29;20338;-73
2023/07/14 04:30:25;;;;;;;2.27;1.93;;;;;;;;;;4901883;29;20271;-73
2023/07/14 04:32:52;;;;;;;2.13;1.70;;;;;;;;;;4902998;29;20301;-73
2023/07/14 04:35:17;;;;;;;2.90;1.80;;;;;;;;;;4895055;29;20176;-73
2023/07/14 04:37:42;;;;;;;5.67;2.50;;;;;;;;;;4895398;29;20195;-73
2023/07/14 04:40:08;;;;;;;4.23;1.97;;;;;;;;;;4897136;29;20185;-74
2023/07/14 04:42:34;;;;;;;3.00;1.70;;;;;;;;;;4914333;29;20195;-74
2023/07/14 04:44:59;;;;;;;2.70;2.10;;;;;;;;;;4910792;29;20203;-73
2023/07/14 04:47:24;;;;;;;3.30;2.00;;;;;;;;;;4906026;29;20215;-73
2023/07/14 04:49:49;;;;;;;2.43;2.00;;;;;;;;;;4914703;29;20267;-73
2023/07/14 04:52:15;;;;;;;3.53;1.90;;;;;;;;;;4893916;29;20272;-73
2023/07/14 04:54:40;;;;;;;2.70;1.80;;;;;;;;;;4903647;29;20238;-73
2023/07/14 04:57:06;;;;;;;3.43;2.20;;;;;;;;;;4896016;29;20188;-73
2023/07/14 04:59:32;;;;;;;2.57;1.97;;;;;;;;;;4903394;29;20284;-73
2023/07/14 05:01:58;;;;;;;3.40;2.27;;;;;;;;;;4896619;29;20240;-73
2023/07/14 05:04:26;;;;;;;3.70;1.90;;;;;;;;;;4904995;29;20193;-73
2023/07/14 05:06:51;;;;;;;4.53;1.80;;;;;;;;;;4906309;29;20186;-73
2023/07/14 05:09:16;;;;;;;4.13;1.80;;;;;;;;;;4885073;29;20225;-73
2023/07/14 05:11:42;;;;;;;4.87;1.97;;;;;;;;;;4889720;29;20327;-73
2023/07/14 05:14:07;;;;;;;5.57;1.67;;;;;;;;;;4894741;29;20190;-73
2023/07/14 05:16:32;;;;;;;3.20;2.03;;;;;;;;;;4891668;29;20211;-73
2023/07/14 05:18:57;;;;;;;1.87;1.70;;;;;;;;;;4887125;29;20189;-73
2023/07/14 05:21:22;;;;;;;2.57;2.03;;;;;;;;;;4893905;29;20224;-73
2023/07/14 05:23:48;;;;;;;3.10;2.03;;;;;;;;;;4892515;29;20195;-74
2023/07/14 05:26:13;;;;;;;3.97;1.87;;;;;;;;;;4892972;29;20205;-73
2023/07/14 05:28:38;;;;;;;5.77;1.97;;;;;;;;;;4893287;29;20209;-73
2023/07/14 05:31:04;;;;;;;2.40;1.97;;;;;;;;;;4887323;29;20184;-73
2023/07/14 05:33:30;;;;;;;2.37;1.67;;;;;;;;;;4902274;29;20189;-73
2023/07/14 05:35:55;;;;;;;8.47;3.80;;;;;;;;;;4899983;29;20186;-73
2023/07/14 05:38:20;;;;;;;4.07;2.00;;;;;;;;;;4890915;29;20205;-73
2023/07/14 05:40:53;;;;;;;5.30;1.97;;;;;;;;;;4893327;29;20186;-73
2023/07/14 05:43:19;;;;;;;2.90;2.30;;;;;;;;;;4886871;29;20201;-73
2023/07/14 05:45:47;;;;;;;1.70;1.60;;;;;;;;;;4891653;29;20191;-73
2023/07/14 05:48:14;;;;;;;6.77;2.20;;;;;;;;;;4893325;29;20207;-73
2023/07/14 05:50:39;;;;;;;4.83;2.20;;;;;;;;;;4895008;29;20182;-73
2023/07/14 05:53:05;;;;;;;4.53;2.30;;;;;;;;;;4892158;29;20271;-73
2023/07/14 05:55:30;;;;;;;3.10;1.90;;;;;;;;;;4908481;29;20235;-73
2023/07/14 05:57:56;;;;;;;2.40;1.67;;;;;;;;;;4892824;29;20189;-73
2023/07/14 06:00:21;;;;;;;7.13;2.50;;;;;;;;;;4893772;29;20311;-73
2023/07/14 06:02:49;;;;;;;2.73;1.87;;;;;;;;;;4892670;29;20214;-73
2023/07/14 06:05:15;;;;;;;7.03;2.60;;;;;;;;;;4899460;29;20186;-74
2023/07/14 06:07:40;;;;;;;3.87;2.13;;;;;;;;;;4888242;29;20207;-73
2023/07/14 06:10:06;;;;;;;2.83;1.63;;;;;;;;;;4896921;29;20210;-73
2023/07/14 06:12:32;;;;;;;2.67;2.00;;;;;;;;;;4890129;29;20183;-73
2023/07/14 06:14:57;;;;;;;5.23;2.17;;;;;;;;;;4897630;29;20179;-73
2023/07/14 06:17:22;;;;;;;4.30;2.03;;;;;;;;;;4895823;29;20197;-72
2023/07/14 06:19:47;;;;;;;3.13;2.13;;;;;;;;;;4897638;29;20278;-73
2023/07/14 06:22:13;;;;;;;3.77;2.20;;;;;;;;;;4893689;29;20210;-73
2023/07/14 06:24:39;;;;;;;1.67;1.57;;;;;;;;;;4906462;29;20175;-73
2023/07/14 06:27:05;;;;;;;2.00;1.80;;;;;;;;;;4904192;29;20194;-73
2023/07/14 06:29:31;;;;;;;3.30;2.00;;;;;;;;;;4911668;29;20215;-73
2023/07/14 06:31:56;;;;;;;3.33;2.13;;;;;;;;;;4896102;29;20219;-73
2023/07/14 06:34:21;;;;;;;3.23;1.87;;;;;;;;;;4904337;29;20180;-72
2023/07/14 06:36:46;;;;;;;4.03;2.30;;;;;;;;;;4900590;29;20249;-73
2023/07/14 06:39:12;;;;;;;2.23;1.90;;;;;;;;;;4891996;29;20185;-73
2023/07/14 06:41:37;;;;;;;3.33;2.10;;;;;;;;;;4896281;29;20217;-74
2023/07/14 06:44:02;;;;;;;2.20;2.00;;;;;;;;;;4897294;29;20244;-73
2023/07/14 06:46:28;;;;;;;2.73;2.00;;;;;;;;;;4894474;29;20185;-73
2023/07/14 06:48:53;;;;;;;1.87;1.67;;;;;;;;;;4895143;29;20332;-73
2023/07/14 06:51:18;;;;;;;2.67;2.37;;;;;;;;;;4907983;29;20195;-73
2023/07/14 06:53:45;;;;;;;2.83;1.87;;;;;;;;;;4889800;29;20242;-73
2023/07/14 06:56:10;;;;;;;3.97;2.27;;;;;;;;;;4885013;29;20188;-73
2023/07/14 06:58:35;;;;;;;2.83;2.07;;;;;;;;;;4909383;29;20190;-73
2023/07/14 07:01:01;;;;;;;4.37;2.00;;;;;;;;;;4893989;29;20219;-73
2023/07/14 07:03:26;;;;;;;3.40;1.77;;;;;;;;;;4892939;29;20257;-73
2023/07/14 07:05:52;;;;;;;4.60;1.70;;;;;;;;;;4894159;29;20190;-73
2023/07/14 07:08:18;;;;;;;2.30;2.10;;;;;;;;;;4897064;29;20238;-73
2023/07/14 07:10:43;;;;;;;2.13;1.93;;;;;;;;;;4906859;29;20268;-73
2023/07/14 07:13:09;;;;;;;5.17;1.90;;;;;;;;;;4905177;29;20217;-72
2023/07/14 07:15:34;;;;;;;7.03;2.13;;;;;;;;;;4887112;29;20222;-73
2023/07/14 07:17:59;;;;;;;3.93;2.43;;;;;;;;;;4893824;29;20207;-73
2023/07/14 07:20:24;;;;;;;2.30;2.03;;;;;;;;;;4890410;29;20197;-73
2023/07/14 07:22:49;;;;;;;2.13;1.90;;;;;;;;;;4891075;29;20250;-74
2023/07/14 07:25:16;;;;;;;3.70;2.37;;;;;;;;;;4897257;29;20189;-73
2023/07/14 07:27:41;;;;;;;4.07;2.40;;;;;;;;;;4895750;29;20273;-73
2023/07/14 07:30:07;;;;;;;3.37;2.00;;;;;;;;;;4904230;29;20194;-73
2023/07/14 07:32:32;;;;;;;2.90;2.20;;;;;;;;;;4908117;29;20194;-73
2023/07/14 07:34:59;;;;;;;4.03;2.00;;;;;;;;;;4884711;29;20192;-73
2023/07/14 07:37:28;;;;;;;3.67;2.33;;;;;;;;;;4893720;29;20190;-73
2023/07/14 07:39:54;;;;;;;2.20;1.97;;;;;;;;;;4904807;29;20197;-72
2023/07/14 07:42:19;;;;;;;4.50;2.20;;;;;;;;;;4898071;29;20183;-73
2023/07/14 07:44:44;;;;;;;3.87;2.17;;;;;;;;;;4891085;29;20183;-73
2023/07/14 07:47:10;;;;;;;3.60;1.80;;;;;;;;;;4895170;29;20278;-73
2023/07/14 07:49:36;;;;;;;2.90;2.07;;;;;;;;;;4915148;29;20263;-73
2023/07/14 07:52:02;;;;;;;2.33;2.13;;;;;;;;;;4897092;29;20191;-73
2023/07/14 07:54:27;;;;;;;6.60;2.60;;;;;;;;;;4894326;29;20331;-73
2023/07/14 07:56:52;;;;;;;3.47;2.27;;;;;;;;;;4897435;29;20271;-73
2023/07/14 07:59:17;;;;;;;2.00;1.80;;;;;;;;;;4893528;29;20184;-73
2023/07/14 08:01:43;;;;;;;2.67;1.97;;;;;;;;;;4904286;29;20195;-73
2023/07/14 08:04:09;;;;;;;2.80;2.00;;;;;;;;;;4894614;29;20185;-73
2023/07/14 08:06:36;;;;;;;2.27;2.00;;;;;;;;;;4902824;29;20272;-73
2023/07/14 08:09:02;;;;;;;2.60;2.10;;;;;;;;;;4894650;29;20284;-73
2023/07/14 08:11:27;;;;;;;6.60;2.60;;;;;;;;;;4892757;29;20195;-73
2023/07/14 08:13:52;;;;;;;3.73;2.20;;;;;;;;;;4906855;29;20185;-73
2023/07/14 08:16:18;;;;;;;4.00;2.20;;;;;;;;;;4890411;29;20187;-73
2023/07/14 08:18:43;;;;;;;1.80;1.70;;;;;;;;;;4902698;29;20279;-73
2023/07/14 08:21:08;;;;;;;3.23;2.20;;;;;;;;;;4887915;29;20188;-73
2023/07/14 08:23:36;;;;;;;2.10;1.70;;;;;;;;;;4893045;29;20191;-73
2023/07/14 08:26:03;;;;;;;3.00;2.20;;;;;;;;;;4912053;29;20186;-73
2023/07/14 08:28:28;;;;;;;3.43;2.30;;;;;;;;;;4890292;29;20302;-73
2023/07/14 08:30:55;;;;;;;4.13;2.27;;;;;;;;;;4906427;29;20292;-73
2023/07/14 08:33:21;;;;;;;4.53;2.60;;;;;;;;;;4893189;29;20191;-73
2023/07/14 08:35:50;;;;;;;5.33;2.00;;;;;;;;;;4890095;29;20194;-72
2023/07/14 08:38:15;;;;;;;4.47;2.07;;;;;;;;;;4892333;29;20194;-73
2023/07/14 08:40:47;;;;;;;3.93;2.13;;;;;;;;;;4893575;29;20222;-73
2023/07/14 08:43:38;;;;;;;3.27;2.43;;;;;;;;;;4895528;29;20211;-73
2023/07/14 08:46:06;;;;;;;4.30;1.87;;;;;;;;;;4869842;29;20195;-73
2023/07/14 08:48:40;;;;;;;3.33;2.20;;;;;;;;;;4916580;29;20219;-73
2023/07/14 08:51:16;;;;;;;1.90;1.80;;;;;;;;;;4894330;29;20176;-73
2023/07/14 08:53:44;;;;;;;3.47;1.97;;;;;;;;;;4893075;29;20252;-73
2023/07/14 08:56:11;;;;;;;3.40;2.00;;;;;;;;;;4907801;29;20203;-73
2023/07/14 08:58:38;;;;;;;3.22;2.40;;;;;;;;;;4910386;29;20183;-73
2023/07/14 09:01:10;;;;;;;2.72;1.88;;;;;;;;;;4896358;29;20187;-73
2023/07/14 09:03:40;;;;;;;4.07;2.30;;;;;;;;;;4890968;29;20189;-73
2023/07/14 09:06:17;;;;;;;4.30;2.33;;;;;;;;;;4904619;29;20198;-73
2023/07/14 09:08:43;;;;;;;2.42;1.80;;;;;;;;;;4910705;29;20210;-73
2023/07/14 09:11:16;;;;;;;3.97;2.47;;;;;;;;;;4914102;29;20266;-73
2023/07/14 09:14:04;;;;;;;3.97;2.00;;;;;;;;;;4896708;29;20197;-73
2023/07/14 09:16:32;;;;;;;2.47;2.28;;;;;;;;;;4887983;29;20206;-73
2023/07/14 09:19:02;;;;;;;2.13;1.90;;;;;;;;;;4912698;29;20198;-73
2023/07/14 09:21:28;;;;;;;3.22;2.20;;;;;;;;;;4907532;29;20244;-73
2023/07/14 09:24:05;;;;;;;2.90;2.17;;;;;;;;;;4912091;29;20186;-73
2023/07/14 09:26:31;;;;;;;3.10;1.80;;;;;;;;;;4909956;29;20213;-73
2023/07/14 09:28:57;;;;;;;2.53;2.20;;;;;;;;;;4905243;29;20246;-73
2023/07/14 09:31:31;;;;;;;4.47;2.10;;;;;;;;;;4905102;29;20210;-73
2023/07/14 09:33:58;;;;;;;3.65;2.25;;;;;;;;;;4894948;29;20186;-73
2023/07/14 09:36:24;;;;;;;3.80;2.10;;;;;;;;;;4909282;29;20273;-73
2023/07/14 09:38:52;;;;;;;4.63;2.25;;;;;;;;;;4897310;29;20259;-73
2023/07/14 09:41:18;;;;;;;3.50;2.10;;;;;;;;;;4913069;29;20191;-73
2023/07/14 09:43:43;;;;;;;2.90;1.95;;;;;;;;;;4916980;29;20193;-73
2023/07/14 09:46:09;;;;;;;4.38;1.88;;;;;;;;;;4914148;29;20179;-73
2023/07/14 09:48:40;;;;;;;3.85;2.42;;;;;;;;;;4911871;29;20302;-73
2023/07/14 09:51:11;;;;;;;2.75;2.28;;;;;;;;;;4908710;29;20221;-73
2023/07/14 09:53:37;;;;;;;3.08;2.25;;;;;;;;;;4903596;29;20219;-73
2023/07/14 09:56:13;;;;;;;5.13;2.22;;;;;;;;;;4917519;29;20186;-73
2023/07/14 09:58:38;;;;;;;4.35;2.28;;;;;;;;;;4898556;29;20281;-73
2023/07/14 10:01:05;;;;;;;3.83;2.00;;;;;;;;;;4903827;29;20270;-73
2023/07/14 10:03:36;;;;;;;2.72;2.10;;;;;;;;;;4911883;29;20187;-73
2023/07/14 10:06:03;;;;;;;3.00;1.98;;;;;;;;;;4908613;29;20228;-73
2023/07/14 10:08:33;;;;;;;3.58;1.60;;;;;;;;;;4901681;29;20209;-73
2023/07/14 10:11:10;;;;;;;3.67;2.17;;;;;;;;;;4915712;29;20175;-73
2023/07/14 10:13:36;;;;;;;3.20;1.73;;;;;;;;;;4915237;29;20206;-73
2023/07/14 10:16:07;;;;;;;3.20;2.10;;;;;;;;;;4909224;29;20175;-73
2023/07/14 10:18:44;;;;;;;3.05;2.13;;;;;;;;;;4912875;29;20273;-73
2023/07/14 10:21:15;;;;;;;4.55;1.95;;;;;;;;;;4908082;29;20202;-73
2023/07/14 10:23:49;;;;;;;3.15;2.20;;;;;;;;;;4915402;29;20261;-73
2023/07/14 10:26:14;;;;;;;3.00;2.00;;;;;;;;;;4913116;29;20186;-73
2023/07/14 10:28:45;;;;;;;4.43;2.53;;;;;;;;;;4915863;29;20282;-73
2023/07/14 10:31:22;;;;;;;3.47;2.17;;;;;;;;;;4914326;29;20182;-73
2023/07/14 10:33:54;;;;;;;3.20;2.58;;;;;;;;;;4913155;29;20175;-73
2023/07/14 10:36:25;;;;;;;4.40;2.33;;;;;;;;;;4915217;29;20226;-73
2023/07/14 10:38:53;;;;;;;3.88;2.20;;;;;;;;;;4902147;29;20247;-73
2023/07/14 10:41:18;;;;;;;2.75;1.80;;;;;;;;;;4913451;29;20180;-73
2023/07/14 10:43:46;;;;;;;2.70;1.83;;;;;;;;;;4907701;29;20238;-73
2023/07/14 10:46:17;;;;;;;4.30;2.20;;;;;;;;;;4916623;29;20222;-73
2023/07/14 10:48:47;;;;;;;4.88;2.00;;;;;;;;;;4900106;29;20207;-73
2023/07/14 10:51:26;;;;;;;4.38;2.17;;;;;;;;;;4913276;29;20178;-73
2023/07/14 10:54:17;;;;;;;4.07;2.00;;;;;;;;;;4912785;29;20235;-73
2023/07/14 10:56:45;;;;;;;5.15;2.20;;;;;;;;;;4908188;29;20252;-73
2023/07/14 10:59:27;;;;;;;3.83;2.08;;;;;;;;;;4912419;29;20219;-73
2023/07/14 11:02:02;;;;;;;2.92;2.10;;;;;;;;;;4908518;29;20191;-73
2023/07/14 11:04:57;;;;;;;4.43;2.22;;;;;;;;;;4913516;29;20182;-73
2023/07/14 11:07:32;;;;;;;2.72;1.65;;;;;;;;;;4896251;29;20226;-73
2023/07/14 11:09:57;;;;;;;3.85;2.10;;;;;;;;;;4911353;29;20233;-73
2023/07/14 11:12:23;;;;;;;4.80;2.17;;;;;;;;;;4910842;29;20175;-73
2023/07/14 11:15:07;;;;;;;4.28;2.47;;;;;;;;;;4913516;29;20189;-73
2023/07/14 11:17:32;;;;;;;2.28;2.10;;;;;;;;;;4909573;29;20204;-73
2023/07/14 11:20:19;;;;;;;2.72;2.00;;;;;;;;;;4905807;29;20187;-73
2023/07/14 11:22:54;;;;;;;2.40;2.05;;;;;;;;;;4907153;29;20215;-73
2023/07/14 11:25:39;;;;;;;2.42;2.20;;;;;;;;;;4907549;29;20178;-73
2023/07/14 11:28:24;;;;;;;2.58;1.92;;;;;;;;;;4910985;29;20258;-73
2023/07/14 11:30:51;;;;;;;9.13;2.88;;;;;;;;;;4911270;29;20183;-73
2023/07/14 11:33:19;;;;;;;2.10;1.80;;;;;;;;;;4904913;29;20239;-73
2023/07/14 11:35:50;;;;;;;4.10;2.42;;;;;;;;;;4913056;29;20190;-73
2023/07/14 11:38:22;;;;;;;3.97;2.08;;;;;;;;;;4909552;29;20243;-73
2023/07/14 11:40:52;;;;;;;3.55;2.10;;;;;;;;;;4912299;29;20179;-73
2023/07/14 11:43:22;;;;;;;2.17;1.90;;;;;;;;;;4912994;29;20185;-72
2023/07/14 11:45:55;;;;;;;2.92;2.10;;;;;;;;;;4895539;29;20194;-73
2023/07/14 11:48:23;;;;;;;3.10;2.10;;;;;;;;;;4910171;29;20210;-73
2023/07/14 11:51:02;;;;;;;2.00;1.90;;;;;;;;;;4903962;29;20183;-73
2023/07/14 11:53:31;;;;;;;5.00;2.00;;;;;;;;;;4900090;29;20207;-73
2023/07/14 11:56:11;;;;;;;1.90;1.50;;;;;;;;;;4905744;29;20179;-73
2023/07/14 11:58:36;;;;;;;1.88;1.77;;;;;;;;;;4909062;29;20192;-73
2023/07/14 12:01:03;;;;;;;2.55;2.03;;;;;;;;;;4894221;29;20226;-73
2023/07/14 12:03:38;;;;;;;5.28;2.30;;;;;;;;;;4911821;29;20183;-73
2023/07/14 12:06:12;;;;;;;2.78;2.00;;;;;;;;;;4909323;29;20178;-73
2023/07/14 12:08:38;;;;;;;2.10;1.90;;;;;;;;;;4894548;29;20227;-73
2023/07/14 12:11:04;;;;;;;3.30;2.10;;;;;;;;;;4895751;29;20182;-73
2023/07/14 12:13:33;;;;;;;3.95;2.55;;;;;;;;;;4911139;29;20258;-74
2023/07/14 12:16:01;;;;;;;2.35;1.95;;;;;;;;;;4898456;29;20174;-76
2023/07/14 12:18:34;;;;;;;2.58;1.90;;;;;;;;;;4910209;29;20189;-75
2023/07/14 12:21:15;;;;;;;2.28;1.98;;;;;;;;;;4914284;29;20195;-75
2023/07/14 12:23:41;;;;;;;2.28;2.00;;;;;;;;;;4895903;29;20187;-75
2023/07/14 12:26:17;;;;;;;3.05;1.83;;;;;;;;;;4912886;29;20205;-75
2023/07/14 12:28:43;;;;;;;2.55;2.35;;;;;;;;;;4900374;29;20266;-75
2023/07/14 12:31:13;;;;;;;4.25;2.33;;;;;;;;;;4910893;29;20179;-75
2023/07/14 12:33:39;;;;;;;3.65;2.10;;;;;;;;;;4898774;29;20201;-75
2023/07/14 12:36:04;;;;;;;6.78;2.20;;;;;;;;;;4913286;29;20237;-75
2023/07/14 12:38:30;;;;;;;3.30;2.13;;;;;;;;;;4894942;29;20231;-75
2023/07/14 12:40:56;;;;;;;2.67;2.10;;;;;;;;;;4910122;29;20241;-75
2023/07/14 12:43:27;;;;;;;2.60;1.90;;;;;;;;;;4910084;29;20263;-75
2023/07/14 12:45:53;;;;;;;2.47;2.20;;;;;;;;;;4900541;29;20183;-75
2023/07/14 12:48:18;;;;;;;1.90;1.70;;;;;;;;;;4913581;29;20274;-75
2023/07/14 12:50:44;;;;;;;1.85;1.75;;;;;;;;;;4909169;29;20271;-75
2023/07/14 12:53:15;;;;;;;3.17;2.40;;;;;;;;;;4912472;29;20206;-75
2023/07/14 12:55:40;;;;;;;2.78;2.13;;;;;;;;;;4898866;29;20235;-75
2023/07/14 12:58:08;;;;;;;2.00;1.88;;;;;;;;;;4910933;29;20186;-75
2023/07/14 13:00:33;;;;;;;3.17;2.55;;;;;;;;;;4904907;29;20191;-76
2023/07/14 13:02:59;;;;;;;3.55;1.95;;;;;;;;;;4912352;29;20193;-76
2023/07/14 13:05:38;;;;;;;3.33;2.13;;;;;;;;;;4898841;29;20183;-75
2023/07/14 13:08:04;;;;;;;2.60;2.40;;;;;;;;;;4906929;29;20215;-75
2023/07/14 13:10:41;;;;;;;2.33;2.13;;;;;;;;;;4903312;29;20180;-75
2023/07/14 13:13:08;;;;;;;2.13;1.98;;;;;;;;;;4893614;29;20216;-75
2023/07/14 13:15:37;;;;;;;3.15;2.13;;;;;;;;;;4907724;29;20222;-75
2023/07/14 13:18:16;;;;;;;2.22;2.03;;;;;;;;;;4908623;29;20198;-76
2023/07/14 13:20:42;;;;;;;3.63;2.03;;;;;;;;;;4910979;29;20182;-75
2023/07/14 13:23:10;;;;;;;4.22;2.13;;;;;;;;;;4899517;29;20193;-75
2023/07/14 13:25:42;;;;;;;2.20;2.00;;;;;;;;;;4908637;29;20181;-75
2023/07/14 13:28:27;;;;;;;2.05;1.88;;;;;;;;;;4902900;29;20195;-75
2023/07/14 13:40:01;;;;;;;2.00;1.80;;;;;;;;;;4903313;29;20202;-75
2023/07/14 13:42:36;;;;;;;3.67;2.00;;;;;;;;;;4896931;29;20186;-75
2023/07/14 13:45:03;;;;;;;4.22;2.30;;;;;;;;;;4907542;29;20174;-75
2023/07/14 13:47:38;;;;;;;2.35;1.90;;;;;;;;;;4911876;29;20198;-75
2023/07/14 13:50:04;;;;;;;3.15;2.25;;;;;;;;;;4909767;29;20170;-75
2023/07/14 13:52:30;;;;;;;2.30;2.08;;;;;;;;;;4910353;29;20246;-75
2023/07/14 13:54:57;;;;;;;2.35;2.15;;;;;;;;;;4903335;29;20223;-76
2023/07/14 13:57:24;;;;;;;5.63;2.35;;;;;;;;;;4914584;29;20195;-76
2023/07/14 13:59:50;;;;;;;2.80;2.35;;;;;;;;;;4912802;29;20181;-76
2023/07/14 14:02:18;;;;;;;2.67;2.25;;;;;;;;;;4902267;29;20178;-76
2023/07/14 14:04:44;;;;;;;2.50;2.30;;;;;;;;;;4894814;29;20183;-75
2023/07/14 14:07:09;;;;;;;5.82;2.30;;;;;;;;;;4909973;29;20212;-75
2023/07/14 14:09:34;;;;;;;3.65;2.47;;;;;;;;;;4895289;29;20277;-76
2023/07/14 14:11:59;;;;;;;2.47;2.13;;;;;;;;;;4911403;29;20206;-76
2023/07/14 14:14:25;;;;;;;2.83;2.50;;;;;;;;;;4906140;29;20226;-76
2023/07/14 14:16:50;;;;;;;2.40;2.20;;;;;;;;;;4906401;29;20282;-76
2023/07/14 14:19:19;;;;;;;2.35;2.08;;;;;;;;;;4896091;29;20278;-76
2023/07/14 14:21:44;;;;;;;3.00;2.13;;;;;;;;;;4908686;29;20194;-75
2023/07/14 14:24:09;;;;;;;3.05;2.50;;;;;;;;;;4914376;29;20279;-75
2023/07/14 14:26:35;;;;;;;2.10;1.90;;;;;;;;;;4897318;29;20187;-75
2023/07/14 14:29:00;;;;;;;1.95;1.83;;;;;;;;;;4909073;29;20215;-75
2023/07/14 14:31:25;;;;;;;2.90;2.40;;;;;;;;;;4900925;29;20187;-75
2023/07/14 14:33:50;;;;;;;3.83;2.40;;;;;;;;;;4915312;29;20189;-76
2023/07/14 14:36:16;;;;;;;2.25;2.08;;;;;;;;;;4910520;29;20179;-75
2023/07/14 14:38:43;;;;;;;3.35;2.28;;;;;;;;;;4909181;29;20242;-76
2023/07/14 14:41:18;;;;;;;3.33;2.08;;;;;;;;;;4923239;29;20179;-75
2023/07/14 14:43:44;;;;;;;3.70;2.38;;;;;;;;;;4914441;29;20186;-76
2023/07/14 14:46:09;;;;;;;2.88;2.47;;;;;;;;;;4912370;29;20189;-76
2023/07/14 14:48:35;;;;;;;3.42;2.40;;;;;;;;;;4909489;29;20360;-76
2023/07/14 14:51:01;;;;;;;2.28;2.08;;;;;;;;;;4909086;29;20182;-76
2023/07/14 14:53:27;;;;;;;4.93;2.20;;;;;;;;;;4903327;29;20202;-75
2023/07/14 14:55:58;;;;;;;3.00;2.65;;;;;;;;;;4907324;29;20202;-75